Time;durP1;ratioP1;P1;durP2;ratioP2;P2;SDS_P1;SDS_P2;PMS_P1;PMS_P2;Temp;Humidity;BMP_temperature;BMP_pressure;BME280_temperature;BME280_humidity;BME280_pressure;Samples;Min_cycle;Max_cycle;Signal;HPM_P1;HPM_P2
2021/12/09 00:01:50;;;;;;;5.28;2.40;;;;;;;19.90;37.23;100065.94;4969272;28;98718;-56
2021/12/09 00:04:25;;;;;;;3.85;2.25;;;;;;;19.89;37.14;100066.94;4983374;28;97656;-56
2021/12/09 00:06:51;;;;;;;5.28;2.42;;;;;;;19.85;37.10;100066.28;4968442;28;97046;-56
2021/12/09 00:09:19;;;;;;;4.97;2.42;;;;;;;19.78;37.20;100063.28;4971958;28;97007;-56
2021/12/09 00:11:47;;;;;;;4.18;2.10;;;;;;;19.76;37.32;100062.53;4986880;28;97023;-56
2021/12/09 00:14:26;;;;;;;4.80;2.30;;;;;;;19.69;37.40;100067.53;4975001;28;98726;-57
2021/12/09 00:16:57;;;;;;;5.80;2.45;;;;;;;19.65;37.39;100067.91;4967328;28;97690;-56
2021/12/09 00:19:23;;;;;;;4.07;2.55;;;;;;;19.64;37.50;100068.88;4978885;28;97066;-57
2021/12/09 00:21:50;;;;;;;5.40;2.47;;;;;;;19.60;37.52;100070.97;4976425;28;96881;-56
2021/12/09 00:24:16;;;;;;;4.00;1.88;;;;;;;19.58;37.59;100072.91;4976982;28;97995;-56
2021/12/09 00:26:44;;;;;;;3.80;2.10;;;;;;;19.59;37.30;100066.59;4973682;28;97467;-56
2021/12/09 00:29:11;;;;;;;4.13;2.05;;;;;;;19.58;37.51;100070.22;4977033;28;97008;-56
2021/12/09 00:31:36;;;;;;;5.05;2.50;;;;;;;19.55;37.51;100070.47;4967556;28;96981;-56
2021/12/09 00:34:03;;;;;;;4.68;2.05;;;;;;;19.53;37.52;100067.09;4972272;28;97007;-56
2021/12/09 00:36:44;;;;;;;5.07;2.40;;;;;;;19.51;37.48;100069.03;4973654;28;97997;-56
2021/12/09 00:39:12;;;;;;;3.95;2.35;;;;;;;19.49;37.46;100061.13;4974603;28;98922;-56
2021/12/09 00:41:38;;;;;;;5.80;2.20;;;;;;;19.45;37.54;100057.00;4976837;28;97068;-56
2021/12/09 00:44:04;;;;;;;4.00;2.30;;;;;;;19.42;37.57;100062.59;4976994;28;97075;-55
2021/12/09 00:46:30;;;;;;;4.32;2.20;;;;;;;19.38;37.56;100067.34;4964984;28;97860;-56
2021/12/09 00:48:56;;;;;;;5.00;2.30;;;;;;;19.35;37.63;100067.56;4965905;28;97459;-55
2021/12/09 00:51:22;;;;;;;3.58;2.00;;;;;;;19.34;37.61;100060.50;4963747;28;97044;-56
2021/12/09 00:53:48;;;;;;;5.18;2.35;;;;;;;19.31;37.64;100065.25;4969134;28;97056;-55
2021/12/09 00:56:14;;;;;;;4.47;1.85;;;;;;;19.29;37.63;100065.41;4971825;28;96875;-55
2021/12/09 00:58:43;;;;;;;4.90;2.22;;;;;;;19.29;37.69;100064.53;4975942;28;97846;-55
2021/12/09 01:01:10;;;;;;;4.30;1.80;;;;;;;19.26;37.62;100067.47;4970870;28;97029;-56
2021/12/09 01:03:38;;;;;;;4.82;2.00;;;;;;;19.23;37.73;100069.41;4974931;28;96963;-55
2021/12/09 01:06:04;;;;;;;3.72;2.13;;;;;;;19.22;37.67;100067.69;4969756;28;97301;-56
2021/12/09 01:08:30;;;;;;;4.65;1.90;;;;;;;19.18;37.89;100068.91;4974403;28;97710;-56
2021/12/09 01:10:56;;;;;;;4.32;2.08;;;;;;;19.14;37.77;100082.63;4973243;28;97774;-56
2021/12/09 01:13:22;;;;;;;5.20;2.00;;;;;;;19.11;37.77;100085.56;4972400;28;97112;-56
2021/12/09 01:15:48;;;;;;;4.07;2.17;;;;;;;19.08;37.87;100083.94;4969144;28;96941;-56
2021/12/09 01:18:14;;;;;;;3.63;1.83;;;;;;;19.07;37.86;100084.94;4977636;28;96863;-56
2021/12/09 01:20:40;;;;;;;3.35;1.83;;;;;;;19.04;37.89;100091.34;4967014;28;98654;-55
2021/12/09 01:23:07;;;;;;;3.30;1.70;;;;;;;19.01;37.94;100085.41;4966950;28;97391;-56
2021/12/09 01:25:36;;;;;;;4.90;2.13;;;;;;;18.97;38.00;100089.31;4968057;28;96934;-55
2021/12/09 01:28:16;;;;;;;4.38;1.90;;;;;;;18.92;37.94;100090.47;4969378;28;97035;-56
2021/12/09 01:30:42;;;;;;;5.13;2.08;;;;;;;18.89;37.94;100090.69;4960797;28;97650;-56
2021/12/09 01:33:09;;;;;;;2.90;1.67;;;;;;;18.89;38.14;100092.53;4971789;28;98608;-56
2021/12/09 01:35:35;;;;;;;3.88;1.92;;;;;;;18.86;38.12;100095.44;4971865;28;97047;-56
2021/12/09 01:38:10;;;;;;;4.07;2.17;;;;;;;18.84;38.07;100097.34;4974882;28;97026;-56
2021/12/09 01:40:37;;;;;;;2.95;1.67;;;;;;;18.79;38.04;100105.72;4971507;28;97023;-56
2021/12/09 01:43:03;;;;;;;3.35;1.90;;;;;;;18.75;38.11;100094.44;4972665;28;97738;-56
2021/12/09 01:45:29;;;;;;;3.40;2.03;;;;;;;18.74;38.12;100102.56;4966249;28;97383;-56
2021/12/09 01:47:54;;;;;;;4.57;2.08;;;;;;;18.70;38.03;100109.97;4974076;28;96898;-56
2021/12/09 01:50:22;;;;;;;4.25;2.10;;;;;;;18.68;38.17;100106.56;4965983;28;114892;-56
2021/12/09 01:52:49;;;;;;;4.18;1.98;;;;;;;18.67;38.02;100106.69;4969151;28;97866;-56
2021/12/09 01:55:18;;;;;;;3.25;1.77;;;;;;;18.67;38.06;100114.69;4969977;28;97597;-56
2021/12/09 01:57:48;;;;;;;3.85;1.90;;;;;;;18.66;37.98;100115.66;4970484;28;97073;-55
2021/12/09 02:00:22;;;;;;;3.92;1.75;;;;;;;18.64;37.66;100110.41;4969406;28;96986;-56
2021/12/09 02:02:50;;;;;;;3.83;2.10;;;;;;;18.65;37.47;100119.28;4972421;28;96842;-55
2021/12/09 02:05:17;;;;;;;4.63;1.95;;;;;;;18.61;37.98;100114.16;4973010;28;98659;-55
2021/12/09 02:07:43;;;;;;;3.35;1.85;;;;;;;18.59;38.07;100116.09;4972595;28;98569;-55
2021/12/09 02:10:16;;;;;;;3.92;1.80;;;;;;;18.58;37.65;100114.41;4972328;28;96832;-55
2021/12/09 02:12:42;;;;;;;3.17;1.83;;;;;;;18.56;37.83;100112.81;4966758;28;97146;-55
2021/12/09 02:15:09;;;;;;;4.00;1.83;;;;;;;18.54;37.86;100107.59;4971750;28;98776;-55
2021/12/09 02:17:35;;;;;;;4.32;2.03;;;;;;;18.50;37.74;100115.97;4970683;28;98364;-55
2021/12/09 02:20:07;;;;;;;3.58;1.60;;;;;;;18.46;37.72;100104.66;4960620;28;96846;-56
2021/12/09 02:22:32;;;;;;;2.55;1.60;;;;;;;18.40;37.80;100110.44;4967698;28;97074;-55
2021/12/09 02:24:58;;;;;;;3.78;1.83;;;;;;;18.40;38.03;100105.13;4966765;28;96967;-55
2021/12/09 02:27:25;;;;;;;2.70;1.48;;;;;;;18.41;37.72;100098.81;4973350;28;97632;-56
2021/12/09 02:29:54;;;;;;;3.33;1.75;;;;;;;18.38;37.81;100091.03;4965270;28;97568;-56
2021/12/09 02:32:20;;;;;;;2.53;1.50;;;;;;;18.35;37.79;100094.78;4964871;28;97021;-56
2021/12/09 02:34:46;;;;;;;3.33;1.60;;;;;;;18.32;38.07;100100.34;4966440;28;96884;-55
2021/12/09 02:37:13;;;;;;;3.45;1.70;;;;;;;18.33;37.86;100098.53;4974344;28;119400;-56
2021/12/09 02:39:41;;;;;;;3.40;1.50;;;;;;;18.31;38.25;100090.66;4961330;28;97769;-56
2021/12/09 02:42:07;;;;;;;3.38;1.52;;;;;;;18.29;38.30;100104.09;4970698;28;97033;-56
2021/12/09 02:44:33;;;;;;;2.92;1.70;;;;;;;18.25;38.27;100102.66;4969086;28;96930;-56
2021/12/09 02:46:58;;;;;;;4.13;2.10;;;;;;;18.25;37.85;100104.44;4971551;28;97018;-56
2021/12/09 02:49:28;;;;;;;3.38;1.75;;;;;;;18.26;37.76;100093.66;4965895;28;97608;-56
2021/12/09 02:51:58;;;;;;;3.42;1.75;;;;;;;18.21;37.77;100098.47;4968330;28;97428;-56
2021/12/09 02:54:24;;;;;;;2.80;1.63;;;;;;;18.18;37.79;100101.38;4962772;28;96731;-55
2021/12/09 02:56:55;;;;;;;3.75;1.67;;;;;;;18.15;37.89;100102.47;4962271;28;96975;-56
2021/12/09 02:59:21;;;;;;;3.38;1.65;;;;;;;18.12;38.31;100102.69;4975906;28;97849;-56
2021/12/09 03:02:01;;;;;;;2.70;1.38;;;;;;;18.11;38.24;100103.63;4977408;28;97252;-56
2021/12/09 03:04:38;;;;;;;3.67;1.50;;;;;;;18.09;38.34;100110.06;4977108;28;96961;-56
2021/12/09 03:07:34;;;;;;;2.63;1.60;;;;;;;18.07;38.61;100110.19;4977221;28;96978;-57
2021/12/09 03:10:18;;;;;;;2.60;1.50;;;;;;;18.06;38.53;100107.63;4974648;28;97022;-57
2021/12/09 03:12:46;;;;;;;3.00;1.55;;;;;;;18.02;38.77;100106.16;4973965;28;97782;-56
2021/12/09 03:15:11;;;;;;;3.83;1.70;;;;;;;17.99;38.73;100109.91;4978906;28;97451;-57
2021/12/09 03:17:39;;;;;;;3.38;1.70;;;;;;;18.00;38.71;100104.44;4975743;28;96993;-57
2021/12/09 03:20:09;;;;;;;3.38;1.60;;;;;;;17.99;38.73;100115.22;4967990;28;97027;-57
2021/12/09 03:22:35;;;;;;;2.83;1.70;;;;;;;17.98;38.63;100117.03;4974522;28;97767;-56
2021/12/09 03:25:05;;;;;;;3.08;1.63;;;;;;;17.95;38.76;100119.91;4967266;28;98654;-56
2021/12/09 03:27:31;;;;;;;2.53;1.50;;;;;;;17.91;38.81;100113.09;4974538;28;97355;-57
2021/12/09 03:29:56;;;;;;;2.30;1.38;;;;;;;17.88;38.76;100121.28;4965779;28;97042;-56
2021/12/09 03:32:23;;;;;;;4.28;1.80;;;;;;;17.90;38.83;100127.38;4967077;28;100321;-56
2021/12/09 03:34:49;;;;;;;3.30;1.52;;;;;;;17.89;38.53;100116.84;4970482;28;97607;-56
2021/12/09 03:37:20;;;;;;;3.40;1.63;;;;;;;17.85;38.87;100125.03;4973155;28;97610;-56
2021/12/09 03:39:46;;;;;;;2.40;1.30;;;;;;;17.82;38.74;100122.59;4968383;28;96955;-56
2021/12/09 03:42:15;;;;;;;3.72;1.60;;;;;;;17.80;38.90;100123.66;4982332;28;97011;-56
2021/12/09 03:44:43;;;;;;;2.10;1.40;;;;;;;17.77;38.77;100126.53;4975556;28;99185;-56
2021/12/09 03:47:14;;;;;;;3.42;1.45;;;;;;;17.77;38.85;100126.53;4977078;28;97753;-56
2021/12/09 03:49:42;;;;;;;2.17;1.45;;;;;;;17.76;38.97;100131.03;4963054;28;97244;-56
2021/12/09 03:52:10;;;;;;;4.28;1.67;;;;;;;17.75;38.93;100132.00;4969036;28;96755;-57
2021/12/09 03:54:36;;;;;;;3.38;1.50;;;;;;;17.74;38.95;100124.97;4968083;28;96899;-56
2021/12/09 03:57:03;;;;;;;3.20;1.65;;;;;;;17.73;38.95;100125.09;4976099;28;97917;-56
2021/12/09 03:59:29;;;;;;;3.40;1.58;;;;;;;17.70;38.82;100132.34;4967972;28;96820;-57
2021/12/09 04:01:54;;;;;;;3.25;1.60;;;;;;;17.68;38.91;100141.41;4972282;28;97097;-57
2021/12/09 04:04:22;;;;;;;3.10;1.63;;;;;;;17.68;38.76;100144.91;4973522;28;97123;-56
2021/12/09 04:06:48;;;;;;;2.45;1.33;;;;;;;17.64;38.85;100135.44;4969414;28;97750;-56
2021/12/09 04:09:18;;;;;;;3.88;1.42;;;;;;;17.64;38.63;100145.22;4973495;28;97619;-57
2021/12/09 04:11:43;;;;;;;3.95;1.75;;;;;;;17.63;38.64;100135.53;4969961;28;97188;-56
2021/12/09 04:14:09;;;;;;;3.65;1.58;;;;;;;17.63;38.82;100144.41;4967156;28;101065;-56
2021/12/09 04:16:36;;;;;;;2.80;1.42;;;;;;;17.62;38.47;100136.50;4970989;28;97092;-56
2021/12/09 04:19:07;;;;;;;3.17;1.65;;;;;;;17.60;38.47;100143.78;4976474;28;97895;-57
2021/12/09 04:21:35;;;;;;;3.33;1.60;;;;;;;17.59;38.78;100139.41;4968663;28;97008;-56
2021/12/09 04:24:07;;;;;;;3.92;1.63;;;;;;;17.56;39.03;100136.94;4976676;28;97006;-56
2021/12/09 04:26:37;;;;;;;2.70;1.40;;;;;;;17.52;39.01;100141.63;4968650;28;96928;-56
2021/12/09 04:29:05;;;;;;;3.20;1.30;;;;;;;17.52;38.82;100138.97;4958341;28;98853;-56
2021/12/09 04:31:31;;;;;;;2.97;1.45;;;;;;;17.49;39.09;100134.72;4972292;28;98700;-55
2021/12/09 04:33:57;;;;;;;3.33;1.50;;;;;;;17.44;39.24;100136.84;4971290;28;97032;-57
2021/12/09 04:36:23;;;;;;;3.25;1.40;;;;;;;17.43;39.11;100140.47;4963436;28;96969;-56
2021/12/09 04:38:49;;;;;;;3.15;1.70;;;;;;;17.45;38.94;100143.88;4970502;28;97095;-56
2021/12/09 04:41:16;;;;;;;3.63;1.33;;;;;;;17.46;38.71;100152.72;4977363;28;97864;-56
2021/12/09 04:43:43;;;;;;;4.15;1.60;;;;;;;17.41;39.11;100147.72;4977108;28;97075;-57
2021/12/09 04:46:10;;;;;;;2.70;1.42;;;;;;;17.40;39.05;100143.34;4964412;28;96958;-56
2021/12/09 04:48:36;;;;;;;3.03;1.50;;;;;;;17.39;39.08;100139.84;4974327;28;96966;-57
2021/12/09 04:51:03;;;;;;;2.60;1.30;;;;;;;17.37;38.97;100154.22;4973353;28;98713;-56
2021/12/09 04:53:28;;;;;;;2.35;1.23;;;;;;;17.36;39.27;100141.88;4966043;28;97661;-57
2021/12/09 04:55:55;;;;;;;4.03;1.58;;;;;;;17.34;39.03;100135.78;4970732;28;97275;-57
2021/12/09 04:58:23;;;;;;;3.10;1.48;;;;;;;17.35;38.79;100148.16;4961524;28;97094;-57
2021/12/09 05:00:51;;;;;;;3.42;1.40;;;;;;;17.33;39.04;100148.25;4970190;28;96887;-56
2021/12/09 05:03:16;;;;;;;2.60;1.33;;;;;;;17.33;39.03;100148.25;4963182;28;98850;-56
2021/12/09 05:05:47;;;;;;;2.95;1.40;;;;;;;17.33;38.85;100155.38;4975812;28;96945;-57
2021/12/09 05:08:16;;;;;;;3.35;1.55;;;;;;;17.30;38.97;100144.94;4969477;28;96954;-57
2021/12/09 05:13:25;;;;;;;4.70;1.75;;;;;;;17.30;39.01;100152.94;4976420;28;97529;-56
2021/12/09 05:15:51;;;;;;;2.63;1.40;;;;;;;17.32;39.06;100159.88;4969063;28;97686;-56
2021/12/09 05:18:18;;;;;;;3.33;1.50;;;;;;;17.36;38.81;100158.69;4965719;28;96937;-57
2021/12/09 05:20:44;;;;;;;3.00;1.58;;;;;;;17.41;38.84;100150.38;4971955;28;97075;-56
2021/12/09 05:23:11;;;;;;;3.28;1.52;;;;;;;17.45;38.80;100151.88;4970116;28;97056;-56
2021/12/09 05:25:36;;;;;;;3.15;1.40;;;;;;;17.50;38.69;100156.88;4975538;28;97733;-56
2021/12/09 05:28:03;;;;;;;3.00;1.40;;;;;;;17.54;38.76;100159.22;4975568;28;97027;-57
2021/12/09 05:30:39;;;;;;;2.03;1.40;;;;;;;17.59;38.68;100158.88;4974246;28;97080;-57
2021/12/09 05:33:06;;;;;;;3.33;1.48;;;;;;;17.62;38.59;100160.47;4975635;28;96928;-56
2021/12/09 05:35:33;;;;;;;2.78;1.40;;;;;;;17.64;38.70;100158.56;4973300;28;97641;-57
2021/12/09 05:38:00;;;;;;;2.85;1.27;;;;;;;17.66;38.62;100156.66;4970435;28;98646;-56
2021/12/09 05:40:27;;;;;;;3.75;1.60;;;;;;;17.68;38.76;100168.91;4971748;28;97454;-57
2021/12/09 05:42:52;;;;;;;3.15;1.38;;;;;;;17.69;38.81;100156.44;4975126;28;96991;-56
2021/12/09 05:45:18;;;;;;;2.53;1.20;;;;;;;17.70;38.70;100169.66;4967961;28;111525;-56
2021/12/09 05:47:43;;;;;;;2.63;1.30;;;;;;;17.70;38.80;100166.16;4974686;28;122163;-57
2021/12/09 05:50:11;;;;;;;2.78;1.35;;;;;;;17.70;38.72;100176.81;4971079;28;97083;-57
2021/12/09 05:52:37;;;;;;;3.85;1.48;;;;;;;17.68;38.75;100179.56;4973694;28;96907;-57
2021/12/09 05:55:03;;;;;;;2.75;1.50;;;;;;;17.68;38.56;100184.06;4970743;28;121128;-57
2021/12/09 05:57:29;;;;;;;1.92;1.20;;;;;;;17.68;38.61;100184.88;4973633;28;98721;-56
2021/12/09 05:59:55;;;;;;;4.35;1.27;;;;;;;17.70;38.78;100176.81;4974248;28;104049;-57
2021/12/09 06:02:21;;;;;;;3.80;1.50;;;;;;;17.69;38.72;100186.59;4974162;28;96916;-56
2021/12/09 06:04:46;;;;;;;4.10;1.27;;;;;;;17.72;38.83;100180.19;4970976;28;97145;-57
2021/12/09 06:07:13;;;;;;;4.85;1.50;;;;;;;17.73;39.23;100178.38;4962343;28;109928;-57
2021/12/09 06:09:39;;;;;;;5.85;1.48;;;;;;;17.75;38.69;100184.47;4957343;28;98728;-56
2021/12/09 06:12:06;;;;;;;3.50;1.20;;;;;;;17.75;38.94;100182.66;4976565;28;96907;-57
2021/12/09 06:14:33;;;;;;;2.22;1.10;;;;;;;17.79;39.02;100193.94;4974094;28;96878;-57
2021/12/09 06:16:58;;;;;;;2.97;1.27;;;;;;;17.80;39.06;100196.50;4962763;28;96868;-57
2021/12/09 06:19:24;;;;;;;5.95;1.45;;;;;;;17.84;39.55;100194.47;4973351;28;97613;-56
2021/12/09 06:21:50;;;;;;;4.32;1.55;;;;;;;17.88;39.79;100197.78;4974840;28;98606;-56
2021/12/09 06:24:15;;;;;;;12.55;2.00;;;;;;;17.95;40.37;100197.22;4969632;28;97045;-56
2021/12/09 06:26:41;;;;;;;5.15;1.63;;;;;;;17.98;40.24;100201.53;4970195;28;97145;-56
2021/12/09 06:29:07;;;;;;;12.93;2.30;;;;;;;18.00;40.12;100204.94;4973998;28;96897;-57
2021/12/09 06:31:34;;;;;;;8.23;1.80;;;;;;;18.02;40.39;100211.00;4974054;28;97657;-57
2021/12/09 06:34:00;;;;;;;10.20;2.08;;;;;;;18.00;40.48;100202.28;4980481;28;97106;-57
2021/12/09 06:36:26;;;;;;;12.93;1.90;;;;;;;18.02;40.84;100210.16;4975403;28;97285;-57
2021/12/09 06:38:52;;;;;;;10.40;1.85;;;;;;;18.03;40.38;100202.03;4975158;28;96922;-56
2021/12/09 06:41:17;;;;;;;6.88;2.00;;;;;;;18.05;40.09;100207.28;4978544;28;97871;-56
2021/12/09 06:43:43;;;;;;;10.32;1.92;;;;;;;18.07;40.44;100199.97;4978111;28;97562;-57
2021/12/09 06:46:11;;;;;;;9.35;1.80;;;;;;;18.07;40.15;100199.97;4977647;28;96966;-57
2021/12/09 06:48:38;;;;;;;10.80;2.00;;;;;;;18.08;40.35;100204.34;4976843;28;97085;-57
2021/12/09 06:51:06;;;;;;;7.00;1.92;;;;;;;18.07;40.47;100203.53;4981455;28;96911;-57
2021/12/09 06:53:36;;;;;;;14.75;2.40;;;;;;;18.08;40.90;100213.22;4977488;28;97450;-57
2021/12/09 06:56:04;;;;;;;8.38;1.85;;;;;;;18.09;40.49;100211.41;4977208;28;97000;-57
2021/12/09 06:58:30;;;;;;;15.93;2.08;;;;;;;18.12;40.57;100213.84;4978936;28;97016;-57
2021/12/09 07:00:57;;;;;;;8.27;1.92;;;;;;;18.11;40.74;100209.47;4979457;28;96939;-57
2021/12/09 07:03:23;;;;;;;8.82;2.05;;;;;;;18.11;40.76;100214.81;4979453;28;97872;-57
2021/12/09 07:05:54;;;;;;;12.55;1.65;;;;;;;18.10;41.48;100219.31;4978828;28;97650;-56
2021/12/09 07:08:20;;;;;;;10.38;1.90;;;;;;;18.08;41.17;100215.03;4977244;28;96844;-57
2021/12/09 07:10:47;;;;;;;10.70;1.98;;;;;;;18.05;41.15;100213.44;4964711;28;96937;-57
2021/12/09 07:13:14;;;;;;;8.52;1.80;;;;;;;18.02;41.17;100211.00;4963131;28;96938;-57
2021/12/09 07:15:40;;;;;;;10.05;2.17;;;;;;;17.99;41.15;100221.91;4959511;28;97586;-57
2021/12/09 07:18:06;;;;;;;10.68;2.08;;;;;;;17.96;41.20;100214.94;4964198;28;96977;-57
2021/12/09 07:20:33;;;;;;;8.45;2.22;;;;;;;17.92;41.45;100216.09;4960239;28;97008;-56
2021/12/09 07:23:00;;;;;;;9.48;2.13;;;;;;;17.90;41.19;100225.19;4964573;28;96938;-57
2021/12/09 07:25:28;;;;;;;7.72;2.15;;;;;;;17.89;40.89;100226.16;4964270;28;97731;-57
2021/12/09 07:27:55;;;;;;;15.82;3.28;;;;;;;17.88;40.86;100225.28;4977977;28;100427;-57
2021/12/09 07:30:26;;;;;;;9.27;2.28;;;;;;;17.88;41.03;100224.44;4978168;28;96819;-56
2021/12/09 07:32:52;;;;;;;10.60;2.60;;;;;;;17.88;40.52;100225.28;4978300;28;97082;-57
2021/12/09 07:35:18;;;;;;;7.75;2.03;;;;;;;17.87;40.75;100230.72;4980852;28;96854;-57
2021/12/09 07:37:45;;;;;;;6.75;2.00;;;;;;;17.85;40.85;100234.34;4978053;28;97407;-58
2021/12/09 07:40:16;;;;;;;6.85;2.10;;;;;;;17.83;40.80;100230.09;4961468;28;96853;-56
2021/12/09 07:42:42;;;;;;;7.05;2.10;;;;;;;17.80;40.64;100238.31;4978235;28;97041;-57
2021/12/09 07:45:11;;;;;;;6.55;2.05;;;;;;;17.78;40.64;100240.22;4978010;28;97001;-57
2021/12/09 07:47:37;;;;;;;9.38;2.30;;;;;;;17.74;40.61;100238.75;4977827;28;97623;-57
2021/12/09 07:50:05;;;;;;;5.70;2.00;;;;;;;17.70;40.60;100244.28;4977120;28;99351;-56
2021/12/09 07:52:30;;;;;;;4.75;1.80;;;;;;;17.68;40.74;100238.19;4977605;28;97005;-56
2021/12/09 07:54:56;;;;;;;6.70;2.20;;;;;;;17.68;40.62;100242.69;4977230;28;112159;-57
2021/12/09 07:57:21;;;;;;;11.25;1.95;;;;;;;17.64;40.61;100244.72;4980800;28;104301;-57
2021/12/09 07:59:47;;;;;;;6.32;2.00;;;;;;;17.62;40.52;100243.97;4977343;28;97762;-57
2021/12/09 08:02:13;;;;;;;4.55;2.03;;;;;;;17.59;40.74;100243.34;4977821;28;96879;-56
2021/12/09 08:04:39;;;;;;;7.53;2.20;;;;;;;17.57;40.89;100246.09;4977953;28;96953;-57
2021/12/09 08:07:04;;;;;;;7.80;2.42;;;;;;;17.57;40.77;100245.25;4977858;28;97011;-56
2021/12/09 08:09:30;;;;;;;6.60;2.10;;;;;;;17.53;40.75;100240.13;4978021;28;97636;-57
2021/12/09 08:11:55;;;;;;;5.47;2.15;;;;;;;17.51;40.74;100236.69;4977001;28;98595;-56
2021/12/09 08:14:22;;;;;;;6.03;1.90;;;;;;;17.49;40.81;100229.78;4974867;28;101914;-57
2021/12/09 08:16:57;;;;;;;6.43;1.90;;;;;;;17.47;40.89;100231.69;4980963;28;96798;-57
2021/12/09 08:19:23;;;;;;;5.15;1.98;;;;;;;17.46;40.76;100232.63;4977876;28;98858;-57
2021/12/09 08:21:48;;;;;;;4.97;1.67;;;;;;;17.41;40.76;100227.63;4977273;28;98516;-56
2021/12/09 08:24:14;;;;;;;8.05;2.03;;;;;;;17.39;40.83;100234.91;4976738;28;102921;-57
2021/12/09 08:26:39;;;;;;;5.90;2.00;;;;;;;17.39;40.86;100235.75;4976714;28;96933;-57
2021/12/09 08:29:06;;;;;;;4.10;1.80;;;;;;;17.39;40.86;100241.06;4969300;28;109614;-57
2021/12/09 08:31:34;;;;;;;5.03;1.88;;;;;;;17.41;40.90;100240.13;4959036;28;97846;-57
2021/12/09 08:34:03;;;;;;;5.00;1.80;;;;;;;17.41;40.87;100243.63;4958110;28;97626;-57
2021/12/09 08:36:29;;;;;;;4.78;2.20;;;;;;;17.40;40.92;100236.56;4956515;28;96866;-57
2021/12/09 08:38:55;;;;;;;3.17;1.40;;;;;;;17.40;40.79;100239.25;4961786;28;96703;-57
2021/12/09 08:41:21;;;;;;;5.25;1.70;;;;;;;17.42;40.69;100225.84;4973639;28;105439;-57
2021/12/09 08:43:47;;;;;;;4.93;1.80;;;;;;;17.41;40.79;100238.28;4976221;28;97645;-57
2021/12/09 08:46:15;;;;;;;4.85;1.92;;;;;;;17.41;40.69;100237.44;4976028;28;110625;-57
2021/12/09 08:48:41;;;;;;;5.70;1.98;;;;;;;17.40;40.79;100241.91;4992733;28;96827;-56
2021/12/09 08:51:07;;;;;;;4.93;1.80;;;;;;;17.40;40.79;100244.56;4977439;28;97039;-57
2021/12/09 08:53:33;;;;;;;7.78;1.80;;;;;;;17.40;40.72;100239.25;4977511;28;97868;-57
2021/12/09 08:55:59;;;;;;;5.38;1.90;;;;;;;17.41;40.69;100246.28;4971233;28;97521;-57
2021/12/09 08:58:28;;;;;;;5.13;1.60;;;;;;;17.42;40.76;100247.16;4976884;28;96846;-56
2021/12/09 09:00:57;;;;;;;3.15;1.48;;;;;;;17.42;40.66;100252.47;4979934;28;96829;-56
2021/12/09 09:03:24;;;;;;;5.80;1.55;;;;;;;17.43;40.50;100256.84;4977109;28;97741;-57
2021/12/09 09:05:52;;;;;;;6.75;1.80;;;;;;;17.42;40.46;100258.66;4957260;28;97724;-57
2021/12/09 09:08:18;;;;;;;4.13;1.77;;;;;;;17.43;40.52;100256.84;4957684;28;97004;-57
2021/12/09 09:10:45;;;;;;;4.93;1.70;;;;;;;17.42;40.50;100263.13;4957458;28;96853;-56
2021/12/09 09:13:13;;;;;;;4.97;1.75;;;;;;;17.43;40.55;100270.19;4958652;28;96785;-57
2021/12/09 09:15:40;;;;;;;5.75;2.13;;;;;;;17.43;40.48;100268.34;4957667;28;97638;-57
2021/12/09 09:18:07;;;;;;;3.47;1.52;;;;;;;17.44;40.48;100274.56;4957163;28;98587;-57
2021/12/09 09:20:39;;;;;;;4.30;1.63;;;;;;;17.44;40.50;100274.56;4976259;28;96891;-57
2021/12/09 09:23:11;;;;;;;4.00;1.67;;;;;;;17.44;40.47;100274.56;4980153;28;96844;-56
2021/12/09 09:25:37;;;;;;;3.90;1.70;;;;;;;17.42;40.52;100277.28;4977043;28;97846;-57
2021/12/09 09:28:04;;;;;;;5.47;1.80;;;;;;;17.41;40.45;100275.59;4976442;28;97429;-57
2021/12/09 09:30:38;;;;;;;4.47;1.80;;;;;;;17.41;40.42;100272.91;4974979;28;97458;-57
2021/12/09 09:33:07;;;;;;;;;;;;;;;17.42;40.44;100274.63;4975641;28;96913;-56
2021/12/09 09:35:36;;;;;;;4.68;1.70;;;;;;;17.45;40.40;100273.59;4975984;28;96795;-57
2021/12/09 09:38:03;;;;;;;3.58;1.50;;;;;;;17.45;40.43;100273.59;4977145;28;97758;-57
2021/12/09 09:40:41;;;;;;;6.65;1.75;;;;;;;17.47;40.35;100271.66;4976140;28;97643;-57
2021/12/09 09:43:25;;;;;;;4.55;1.55;;;;;;;17.49;40.29;100267.06;4976695;28;97236;-57
2021/12/09 09:45:53;;;;;;;3.88;1.70;;;;;;;17.51;40.21;100267.84;4980112;28;96854;-57
2021/12/09 09:48:19;;;;;;;4.40;1.80;;;;;;;17.50;40.34;100268.78;4973983;28;98775;-56
2021/12/09 09:50:45;;;;;;;5.38;1.70;;;;;;;17.48;40.30;100266.25;4974919;28;97549;-57
2021/12/09 09:53:10;;;;;;;4.22;1.58;;;;;;;17.49;40.41;100267.06;4976480;28;96800;-57
2021/12/09 09:55:37;;;;;;;4.03;1.60;;;;;;;17.50;40.09;100263.47;4975258;28;111745;-56
2021/12/09 09:58:03;;;;;;;4.43;1.63;;;;;;;17.51;40.29;100262.50;4977085;28;96812;-57
2021/12/09 10:00:29;;;;;;;3.15;1.60;;;;;;;17.53;40.25;100265.94;4976911;28;97517;-57
2021/12/09 10:02:55;;;;;;;4.13;1.40;;;;;;;17.51;40.27;100271.34;4966979;28;97368;-57
2021/12/09 10:05:28;;;;;;;3.22;1.35;;;;;;;17.54;40.12;100270.28;4958696;28;97208;-57
2021/12/09 10:07:55;;;;;;;3.03;1.60;;;;;;;17.53;40.18;100272.09;4981461;28;96892;-57
2021/12/09 10:10:23;;;;;;;2.95;1.80;;;;;;;17.53;40.23;100277.41;4980328;28;96758;-56
2021/12/09 10:13:02;;;;;;;3.83;2.03;;;;;;;17.52;40.19;100267.72;4979410;28;97804;-56
2021/12/09 10:15:46;;;;;;;5.72;1.45;;;;;;;17.51;40.12;100265.16;4979342;28;96850;-56
2021/12/09 10:18:30;;;;;;;;;;;;;;;17.49;40.18;100267.94;4980548;28;96988;-56
2021/12/09 10:20:55;;;;;;;2.88;1.50;;;;;;;17.50;40.21;100271.44;4980217;28;96834;-57
2021/12/09 10:23:33;;;;;;;2.90;1.30;;;;;;;17.49;40.27;100265.28;4977802;28;96826;-57
2021/12/09 10:26:24;;;;;;;3.50;1.30;;;;;;;17.50;40.22;100266.13;4977597;28;98915;-57
2021/12/09 10:28:56;;;;;;;3.60;1.55;;;;;;;17.49;40.28;100254.63;4982842;28;96858;-56
2021/12/09 10:31:27;;;;;;;3.85;1.60;;;;;;;17.50;40.29;100255.47;4980393;28;96810;-57
2021/12/09 10:34:04;;;;;;;3.42;1.50;;;;;;;17.51;40.16;100243.84;4980608;28;97889;-57
2021/12/09 10:36:55;;;;;;;4.43;1.70;;;;;;;17.51;40.12;100239.34;4978271;28;98008;-57
2021/12/09 10:39:32;;;;;;;2.88;1.45;;;;;;;17.52;40.09;100246.41;4979540;28;97078;-57
2021/12/09 10:42:06;;;;;;;3.67;1.42;;;;;;;17.52;40.04;100248.22;4973823;28;96912;-57
2021/12/09 10:44:37;;;;;;;4.68;1.48;;;;;;;17.52;40.19;100242.91;4971411;28;96832;-57
2021/12/09 10:47:15;;;;;;;4.28;1.35;;;;;;;17.51;40.17;100254.50;4969318;28;98040;-57
2021/12/09 10:50:04;;;;;;;3.40;1.40;;;;;;;17.50;40.13;100263.47;4978229;28;97831;-57
2021/12/09 10:52:42;;;;;;;2.45;1.10;;;;;;;17.51;40.33;100255.34;4963184;28;96877;-57
2021/12/09 10:55:15;;;;;;;2.85;1.20;;;;;;;17.54;40.25;100262.31;4977099;28;97001;-57
2021/12/09 10:57:41;;;;;;;4.32;1.27;;;;;;;17.57;40.26;100253.25;4972757;28;97732;-57
2021/12/09 11:00:25;;;;;;;5.70;1.50;;;;;;;17.61;40.20;100252.03;4959372;28;97606;-57
2021/12/09 11:03:14;;;;;;;5.10;1.52;;;;;;;17.61;40.13;100250.25;4972740;28;96963;-57
2021/12/09 11:05:54;;;;;;;4.22;1.50;;;;;;;17.63;40.19;100250.13;4979715;28;96912;-57
2021/12/09 11:08:28;;;;;;;3.45;1.42;;;;;;;17.64;40.08;100246.50;4979014;28;96843;-57
2021/12/09 11:11:03;;;;;;;3.33;1.30;;;;;;;17.65;40.18;100246.41;4965644;28;98731;-57
2021/12/09 11:13:50;;;;;;;3.28;1.02;;;;;;;17.68;40.13;100242.69;4959165;28;97592;-57
2021/12/09 11:16:49;;;;;;;4.88;1.60;;;;;;;17.73;40.06;100255.69;4967584;28;96948;-57
2021/12/09 11:19:35;;;;;;;3.25;1.10;;;;;;;17.78;40.02;100235.75;4957295;28;96788;-57
2021/12/09 11:22:19;;;;;;;2.92;1.40;;;;;;;17.85;40.05;100241.50;4969842;28;97859;-57
2021/12/09 11:24:48;;;;;;;3.42;1.30;;;;;;;17.90;40.21;100235.84;4976690;28;97482;-57
2021/12/09 11:27:25;;;;;;;3.17;1.42;;;;;;;17.97;40.11;100235.31;4976892;28;97018;-57
2021/12/09 11:29:55;;;;;;;2.85;1.30;;;;;;;17.98;40.19;100237.03;4975055;28;96975;-57
2021/12/09 11:33:05;;;;;;;3.17;1.30;;;;;;;18.02;40.26;100227.00;4966532;28;96810;-57
2021/12/09 11:35:25;;;;;;;3.05;1.30;;;;;;;18.05;40.26;100225.94;4977823;28;97691;-58